Time;durP1;ratioP1;P1;durP2;ratioP2;P2;SDS_P1;SDS_P2;PMS_P1;PMS_P2;Temp;Humidity;BMP_temperature;BMP_pressure;BME280_temperature;BME280_humidity;BME280_pressure;Samples;Min_cycle;Max_cycle;Signal;HPM_P1;HPM_P2
2023/08/05 00:01:01;;;;;;;4.40;2.22;;;16.30;99.90;;;;;;5087460;28;20059;-57
2023/08/05 00:03:27;;;;;;;4.97;2.55;;;16.20;99.90;;;;;;5089130;28;20074;-57
2023/08/05 00:05:52;;;;;;;4.78;2.78;;;16.20;99.90;;;;;;5072000;28;20059;-56
2023/08/05 00:08:18;;;;;;;3.75;2.60;;;16.20;99.90;;;;;;5090069;28;20058;-57
2023/08/05 00:10:45;;;;;;;5.38;2.90;;;16.10;99.90;;;;;;5091833;28;20077;-57
2023/08/05 00:13:11;;;;;;;5.13;2.63;;;16.10;99.90;;;;;;5093160;28;20172;-56
2023/08/05 00:15:37;;;;;;;4.25;3.15;;;16.10;99.90;;;;;;5065189;28;20044;-57
2023/08/05 00:18:02;;;;;;;7.38;3.00;;;16.10;99.90;;;;;;5091757;28;20497;-56
2023/08/05 00:20:28;;;;;;;7.00;2.67;;;16.10;99.90;;;;;;5090572;28;20146;-57
2023/08/05 00:22:54;;;;;;;4.85;3.00;;;16.10;99.90;;;;;;5092228;28;20139;-57
2023/08/05 00:25:19;;;;;;;4.05;3.08;;;16.10;99.90;;;;;;5059060;28;20412;-58
2023/08/05 00:27:45;;;;;;;4.70;2.83;;;16.10;99.90;;;;;;5091518;28;20052;-58
2023/08/05 00:30:11;;;;;;;3.53;2.45;;;16.00;99.90;;;;;;5082989;28;20074;-55
2023/08/05 00:32:37;;;;;;;5.30;2.75;;;16.00;99.90;;;;;;5085562;28;20134;-56
2023/08/05 00:35:04;;;;;;;9.95;2.92;;;16.00;99.90;;;;;;5095696;28;20116;-56
2023/08/05 00:37:31;;;;;;;4.97;2.83;;;15.90;99.90;;;;;;5078947;28;20135;-63
2023/08/05 00:39:57;;;;;;;5.57;3.70;;;15.90;99.90;;;;;;5091388;28;20079;-61
2023/08/05 00:42:23;;;;;;;5.55;3.60;;;15.80;99.90;;;;;;5078641;28;20105;-60
2023/08/05 00:44:49;;;;;;;7.03;2.85;;;15.80;99.90;;;;;;5091950;28;20067;-60
2023/08/05 00:47:18;;;;;;;5.32;3.17;;;15.70;99.90;;;;;;5086475;28;20108;-61
2023/08/05 00:49:45;;;;;;;5.85;2.90;;;15.70;99.90;;;;;;5079811;28;20105;-60
2023/08/05 00:52:13;;;;;;;5.38;3.58;;;15.60;99.90;;;;;;5080509;28;20110;-55
2023/08/05 00:54:40;;;;;;;6.93;4.10;;;15.60;99.90;;;;;;5080197;28;20056;-56
2023/08/05 00:59:31;;;;;;;6.47;3.42;;;15.60;99.90;;;;;;5085538;28;20060;-57
2023/08/05 01:01:56;;;;;;;5.50;3.00;;;15.50;99.90;;;;;;5070774;28;20044;-57
2023/08/05 01:04:22;;;;;;;4.63;3.10;;;15.40;99.90;;;;;;5087339;28;20525;-57
2023/08/05 01:06:49;;;;;;;4.97;3.10;;;15.40;99.90;;;;;;5091658;28;20083;-56
2023/08/05 01:09:15;;;;;;;5.18;3.08;;;15.40;99.90;;;;;;5080965;28;20087;-56
2023/08/05 01:11:41;;;;;;;5.63;3.15;;;15.40;99.90;;;;;;5077797;28;20170;-57
2023/08/05 01:14:09;;;;;;;5.22;2.88;;;15.40;99.90;;;;;;5084512;28;20054;-57
2023/08/05 01:16:35;;;;;;;5.45;2.65;;;15.40;99.90;;;;;;5075150;28;20053;-56
2023/08/05 01:19:04;;;;;;;6.45;2.88;;;15.40;99.90;;;;;;5084923;28;20842;-56
2023/08/05 01:21:41;;;;;;;4.55;3.20;;;15.40;99.90;;;;;;5089907;28;20060;-57
2023/08/05 01:26:37;;;;;;;5.38;3.35;;;15.30;99.90;;;;;;5081200;28;20204;-56
2023/08/05 01:29:05;;;;;;;3.13;2.67;;;15.30;99.90;;;;;;5093003;28;20120;-56
2023/08/05 01:31:31;;;;;;;13.43;4.03;;;15.30;99.90;;;;;;5087080;28;20067;-59
2023/08/05 01:33:58;;;;;;;6.70;3.30;;;15.30;99.90;;;;;;5088960;28;20060;-62
2023/08/05 01:36:24;;;;;;;6.05;3.20;;;15.30;99.90;;;;;;5087720;28;20430;-59
2023/08/05 01:38:49;;;;;;;7.00;3.05;;;15.20;99.90;;;;;;5111803;27;20055;-56
2023/08/05 01:41:16;;;;;;;5.88;3.20;;;15.20;99.90;;;;;;5116438;27;20062;-57
2023/08/05 01:43:42;;;;;;;3.70;3.30;;;15.10;99.90;;;;;;5095021;27;20068;-57
2023/08/05 01:46:10;;;;;;;7.18;3.58;;;15.10;99.90;;;;;;5082277;28;20134;-64
2023/08/05 01:48:36;;;;;;;9.13;3.30;;;15.00;99.90;;;;;;5116276;27;20055;-56
2023/08/05 01:51:02;;;;;;;8.40;3.40;;;15.00;99.90;;;;;;5084051;28;20054;-57
2023/08/05 01:53:28;;;;;;;7.05;3.97;;;14.90;99.90;;;;;;5074543;27;20063;-57
2023/08/05 01:55:53;;;;;;;5.05;3.25;;;14.90;99.90;;;;;;5108190;27;20063;-57
2023/08/05 01:58:19;;;;;;;4.80;3.25;;;14.80;99.90;;;;;;5115890;27;20142;-56
2023/08/05 02:00:52;;;;;;;3.53;2.85;;;14.80;99.90;;;;;;5095416;27;20144;-57
2023/08/05 02:03:18;;;;;;;4.57;3.97;;;14.70;99.90;;;;;;5111721;27;20055;-56
2023/08/05 02:05:43;;;;;;;4.90;3.15;;;14.70;99.90;;;;;;5118758;27;20058;-57
2023/08/05 02:08:09;;;;;;;4.80;2.75;;;14.70;99.90;;;;;;5118623;27;20576;-55
2023/08/05 02:10:36;;;;;;;7.97;3.05;;;14.60;99.90;;;;;;5076109;28;20154;-57
2023/08/05 02:13:03;;;;;;;4.30;2.78;;;14.60;99.90;;;;;;5076064;28;20064;-57
2023/08/05 02:15:29;;;;;;;3.47;3.00;;;14.50;99.90;;;;;;5088007;28;20070;-57
2023/08/05 02:17:55;;;;;;;4.13;3.20;;;14.50;99.90;;;;;;5100454;28;20056;-56
2023/08/05 02:20:20;;;;;;;5.60;3.05;;;14.40;99.90;;;;;;5078780;28;20055;-56
2023/08/05 02:22:46;;;;;;;2.85;2.35;;;14.30;99.90;;;;;;5076983;28;20086;-57
2023/08/05 02:25:12;;;;;;;6.05;3.10;;;14.20;99.90;;;;;;5075464;28;20160;-57
2023/08/05 02:27:38;;;;;;;7.35;3.38;;;14.20;99.90;;;;;;5071196;28;20054;-57
2023/08/05 02:30:04;;;;;;;3.88;2.85;;;14.10;99.90;;;;;;5051660;28;20058;-57
2023/08/05 02:32:29;;;;;;;4.80;2.97;;;14.10;99.90;;;;;;5071009;28;20055;-56
2023/08/05 02:34:55;;;;;;;7.68;3.63;;;14.00;99.90;;;;;;5088210;27;20062;-57
2023/08/05 02:37:21;;;;;;;4.72;2.50;;;14.00;99.90;;;;;;5097931;28;20055;-56
2023/08/05 02:39:46;;;;;;;5.22;3.05;;;14.00;99.90;;;;;;5095011;28;20059;-57
2023/08/05 02:42:12;;;;;;;5.03;2.55;;;13.90;99.90;;;;;;5091484;27;20173;-56
2023/08/05 02:44:38;;;;;;;3.85;2.33;;;13.90;99.90;;;;;;5092867;28;20576;-57
2023/08/05 02:47:03;;;;;;;3.35;2.78;;;13.90;99.90;;;;;;5079552;28;20059;-56
2023/08/05 02:49:31;;;;;;;6.03;3.58;;;13.80;99.90;;;;;;5086199;28;20063;-57
2023/08/05 02:51:56;;;;;;;7.88;2.47;;;13.80;99.90;;;;;;5093416;28;20052;-57
2023/08/05 02:54:22;;;;;;;5.63;2.88;;;13.80;99.90;;;;;;5094610;27;20812;-57
2023/08/05 02:56:48;;;;;;;8.43;3.72;;;13.80;99.90;;;;;;5038691;28;1108545;-57
2023/08/05 02:59:13;;;;;;;5.05;2.88;;;13.70;99.90;;;;;;5087404;28;20087;-57
2023/08/05 03:01:39;;;;;;;4.90;2.70;;;13.70;99.90;;;;;;5092897;28;20051;-56
2023/08/05 03:04:05;;;;;;;4.00;2.92;;;13.70;99.90;;;;;;5097124;28;20052;-57
2023/08/05 03:06:30;;;;;;;5.82;3.28;;;13.70;99.90;;;;;;5099127;27;20551;-57
2023/08/05 03:08:56;;;;;;;4.82;3.47;;;13.70;99.90;;;;;;5094450;28;20083;-57
2023/08/05 03:11:22;;;;;;;5.03;3.10;;;13.80;99.90;;;;;;5087169;28;20778;-57
2023/08/05 03:13:48;;;;;;;7.07;3.78;;;13.80;99.90;;;;;;5092813;28;20055;-56
2023/08/05 03:16:14;;;;;;;3.88;2.97;;;13.70;99.90;;;;;;5081159;28;20223;-57
2023/08/05 03:18:40;;;;;;;3.20;2.85;;;13.70;99.90;;;;;;5068624;28;20056;-57
2023/08/05 03:21:09;;;;;;;4.72;3.17;;;13.70;99.90;;;;;;5092288;28;20055;-57
2023/08/05 03:23:35;;;;;;;6.65;3.20;;;13.60;99.90;;;;;;5083289;28;20544;-57
2023/08/05 03:26:01;;;;;;;7.03;3.30;;;13.50;99.90;;;;;;5047635;28;20485;-56
2023/08/05 03:28:26;;;;;;;4.30;3.15;;;13.40;99.90;;;;;;5092799;28;20106;-56
2023/08/05 03:30:52;;;;;;;5.55;3.30;;;13.40;99.90;;;;;;5103211;28;20096;-57
2023/08/05 03:33:18;;;;;;;5.72;2.63;;;13.40;99.90;;;;;;5081760;28;20056;-57
2023/08/05 03:35:44;;;;;;;5.85;2.80;;;13.40;99.90;;;;;;5084677;28;20146;-58
2023/08/05 03:38:10;;;;;;;3.50;2.60;;;13.40;99.90;;;;;;5092610;28;20055;-58
2023/08/05 03:40:35;;;;;;;4.60;3.70;;;13.40;99.90;;;;;;5084813;28;20056;-59
2023/08/05 03:43:02;;;;;;;7.72;3.83;;;13.40;99.90;;;;;;5084393;28;20517;-58
2023/08/05 03:45:28;;;;;;;5.05;3.35;;;13.30;99.90;;;;;;5081948;28;20067;-58
2023/08/05 03:47:57;;;;;;;4.45;3.00;;;13.30;99.90;;;;;;5073230;28;20113;-59
2023/08/05 03:50:22;;;;;;;3.60;2.72;;;13.30;99.90;;;;;;5097356;28;20083;-59
2023/08/05 03:52:48;;;;;;;4.00;3.08;;;13.30;99.90;;;;;;5096451;28;20139;-59
2023/08/05 03:55:15;;;;;;;4.93;2.65;;;13.30;99.90;;;;;;5067464;28;20134;-55
2023/08/05 03:57:41;;;;;;;4.05;3.13;;;13.30;99.90;;;;;;5074461;28;20071;-56
2023/08/05 04:00:11;;;;;;;5.93;3.15;;;13.30;99.90;;;;;;5092497;28;20052;-57
2023/08/05 04:02:37;;;;;;;4.50;2.92;;;13.40;99.90;;;;;;5089469;28;20055;-57
2023/08/05 04:07:35;;;;;;;7.03;3.50;;;13.50;99.90;;;;;;5089068;27;20047;-57
2023/08/05 04:10:01;;;;;;;6.65;3.33;;;13.50;99.90;;;;;;5083797;28;20417;-57
2023/08/05 04:12:26;;;;;;;8.18;4.25;;;13.50;99.90;;;;;;5081059;28;20079;-56
2023/08/05 04:14:53;;;;;;;4.20;2.95;;;13.50;99.90;;;;;;5082242;28;20135;-57
2023/08/05 04:17:21;;;;;;;4.07;2.90;;;13.60;99.90;;;;;;5083829;27;20044;-56
2023/08/05 04:19:47;;;;;;;9.50;3.53;;;13.60;99.90;;;;;;5090444;27;20052;-57
2023/08/05 04:22:16;;;;;;;4.82;3.05;;;13.70;99.90;;;;;;5089446;27;20056;-57
2023/08/05 04:24:45;;;;;;;6.28;3.33;;;13.70;99.90;;;;;;5083241;28;20113;-56
2023/08/05 04:27:10;;;;;;;5.65;3.40;;;13.70;99.90;;;;;;5082063;28;20077;-56
2023/08/05 04:29:36;;;;;;;3.53;2.92;;;13.80;99.90;;;;;;5089807;28;20646;-59
2023/08/05 04:32:02;;;;;;;8.32;3.83;;;13.80;99.90;;;;;;5103701;28;20047;-57
2023/08/05 04:34:31;;;;;;;5.13;3.47;;;13.90;99.90;;;;;;5054472;28;20115;-57
2023/08/05 04:36:57;;;;;;;3.10;2.72;;;13.90;99.90;;;;;;5089524;27;20864;-60
2023/08/05 04:39:23;;;;;;;5.50;2.63;;;13.90;99.90;;;;;;5099393;28;20058;-56
2023/08/05 04:41:48;;;;;;;6.55;2.72;;;14.00;99.90;;;;;;5103711;28;20056;-56
2023/08/05 04:44:14;;;;;;;10.88;3.17;;;14.00;99.90;;;;;;5101553;28;20079;-57
2023/08/05 04:46:40;;;;;;;4.13;3.25;;;14.10;99.90;;;;;;5079384;28;20472;-56
2023/08/05 04:49:09;;;;;;;4.10;2.90;;;14.20;99.90;;;;;;5087842;28;20052;-57
2023/08/05 04:51:35;;;;;;;6.00;3.38;;;14.30;99.90;;;;;;5100444;27;20063;-56
2023/08/05 04:54:02;;;;;;;7.05;3.35;;;14.30;99.90;;;;;;5094894;28;20062;-56
2023/08/05 04:56:27;;;;;;;11.20;3.17;;;14.40;99.90;;;;;;5057019;28;20059;-57
2023/08/05 04:58:53;;;;;;;5.82;3.05;;;14.50;99.90;;;;;;5102630;28;20503;-56
2023/08/05 05:01:19;;;;;;;3.83;2.30;;;14.60;99.90;;;;;;5081980;28;20163;-56
2023/08/05 05:03:46;;;;;;;7.22;2.88;;;14.70;99.90;;;;;;5082514;28;20052;-57
2023/08/05 05:06:12;;;;;;;2.92;2.35;;;14.80;99.90;;;;;;5081218;28;20082;-56
2023/08/05 05:08:38;;;;;;;8.70;2.55;;;14.80;99.90;;;;;;5081337;28;20056;-57
2023/08/05 05:11:04;;;;;;;3.53;2.42;;;14.90;99.90;;;;;;5080312;28;20124;-56
2023/08/05 05:13:29;;;;;;;4.88;2.65;;;14.90;99.90;;;;;;5091765;28;20051;-56
2023/08/05 05:15:55;;;;;;;5.07;2.60;;;15.10;99.90;;;;;;5077712;28;20113;-56
2023/08/05 05:18:21;;;;;;;4.85;2.63;;;15.00;99.90;;;;;;5090325;28;20048;-56
2023/08/05 05:20:50;;;;;;;5.00;3.17;;;15.20;99.90;;;;;;5083003;28;20773;-56
2023/08/05 05:23:16;;;;;;;6.30;2.80;;;15.20;99.90;;;;;;5089671;28;20093;-55
2023/08/05 05:25:42;;;;;;;5.22;2.30;;;15.40;99.90;;;;;;5102325;28;20055;-58
2023/08/05 05:28:10;;;;;;;4.68;2.80;;;15.40;99.90;;;;;;5111141;27;20055;-56
2023/08/05 05:30:35;;;;;;;5.03;2.90;;;15.40;99.90;;;;;;5081492;28;20048;-57
2023/08/05 05:33:01;;;;;;;5.80;2.78;;;15.50;99.90;;;;;;5094118;28;20634;-56
2023/08/05 05:35:29;;;;;;;4.63;2.83;;;15.50;99.90;;;;;;5082463;28;20406;-56
2023/08/05 05:37:54;;;;;;;3.10;2.58;;;15.60;99.90;;;;;;5085477;28;20710;-56
2023/08/05 05:40:20;;;;;;;8.88;3.55;;;15.70;99.90;;;;;;5060641;28;20062;-56
2023/08/05 05:42:49;;;;;;;4.10;2.83;;;15.80;99.90;;;;;;5097559;28;20054;-57
2023/08/05 05:45:15;;;;;;;6.07;2.45;;;15.80;99.90;;;;;;5100237;28;20058;-56
2023/08/05 05:47:40;;;;;;;7.30;3.42;;;15.80;99.90;;;;;;5100961;28;20079;-56
2023/08/05 05:50:09;;;;;;;4.35;2.80;;;15.80;99.90;;;;;;5095421;28;20094;-56
2023/08/05 05:52:35;;;;;;;3.42;2.20;;;16.00;99.90;;;;;;5107760;27;21194;-56
2023/08/05 05:55:02;;;;;;;7.60;4.18;;;15.90;99.90;;;;;;5093279;28;20469;-56
2023/08/05 05:57:28;;;;;;;6.20;2.92;;;16.00;99.90;;;;;;5079860;28;20060;-56
2023/08/05 05:59:55;;;;;;;5.28;2.38;;;16.00;99.90;;;;;;5076881;28;20117;-56
2023/08/05 06:02:21;;;;;;;4.40;2.45;;;16.00;99.90;;;;;;5071101;28;20043;-56
2023/08/05 06:04:47;;;;;;;4.65;2.58;;;15.90;99.90;;;;;;5096355;28;20559;-57
2023/08/05 06:07:13;;;;;;;3.00;2.47;;;16.00;99.90;;;;;;5088835;28;20083;-58
2023/08/05 06:09:39;;;;;;;5.15;3.03;;;15.90;99.90;;;;;;5099270;27;20055;-58
2023/08/05 06:12:10;;;;;;;3.55;3.00;;;16.00;99.90;;;;;;5079516;28;20059;-62
2023/08/05 06:14:36;;;;;;;6.90;2.30;;;15.90;99.90;;;;;;5063198;28;20080;-60
2023/08/05 06:17:03;;;;;;;6.68;2.33;;;16.00;99.90;;;;;;5054895;28;20060;-60
2023/08/05 06:19:28;;;;;;;4.20;2.80;;;16.40;99.90;;;;;;5054100;28;20114;-57
2023/08/05 06:21:54;;;;;;;2.35;2.03;;;16.70;99.90;;;;;;5074669;28;20051;-57
2023/08/05 06:24:20;;;;;;;10.77;3.53;;;17.00;99.90;;;;;;5098693;28;20068;-57
2023/08/05 06:26:45;;;;;;;4.60;2.50;;;17.20;99.90;;;;;;5092684;28;20083;-57
2023/08/05 06:29:11;;;;;;;5.15;2.50;;;17.20;99.90;;;;;;5067490;28;20124;-56
2023/08/05 06:31:37;;;;;;;4.55;1.95;;;17.30;99.90;;;;;;5077047;28;20715;-57
2023/08/05 06:34:03;;;;;;;6.38;2.53;;;17.40;99.90;;;;;;5092607;28;20067;-57
2023/08/05 06:36:28;;;;;;;2.67;1.60;;;17.70;99.90;;;;;;5097176;28;20048;-56
2023/08/05 06:38:54;;;;;;;3.70;1.83;;;18.10;99.90;;;;;;5070765;28;20126;-57
2023/08/05 06:41:20;;;;;;;3.15;1.85;;;18.10;99.90;;;;;;5082733;28;20056;-57
2023/08/05 06:43:45;;;;;;;3.25;2.00;;;18.40;99.90;;;;;;5095149;28;20064;-57
2023/08/05 06:46:11;;;;;;;1.95;1.58;;;18.50;99.90;;;;;;5087358;28;20117;-56
2023/08/05 06:48:37;;;;;;;1.65;1.38;;;18.40;99.90;;;;;;5086688;28;20056;-57
2023/08/05 06:51:02;;;;;;;4.85;2.03;;;18.40;99.90;;;;;;5087205;28;20416;-57
2023/08/05 06:53:28;;;;;;;1.63;1.35;;;18.40;99.90;;;;;;5071273;28;20086;-57
2023/08/05 06:56:02;;;;;;;3.60;1.67;;;18.40;99.90;;;;;;5100132;28;20060;-57
2023/08/05 06:58:27;;;;;;;2.08;1.70;;;18.40;99.90;;;;;;5086136;28;20151;-57
2023/08/05 07:00:53;;;;;;;2.35;1.50;;;18.50;99.90;;;;;;5082008;28;20059;-57
2023/08/05 07:03:19;;;;;;;4.38;2.13;;;18.90;99.90;;;;;;5080623;28;20075;-57
2023/08/05 07:05:44;;;;;;;3.60;2.13;;;19.20;99.90;;;;;;5096529;28;20056;-57
2023/08/05 07:08:10;;;;;;;4.80;1.55;;;19.50;99.90;;;;;;5082583;28;20084;-56
2023/08/05 07:10:36;;;;;;;2.47;1.50;;;19.80;99.90;;;;;;5086373;28;20059;-57
2023/08/05 07:13:05;;;;;;;4.68;1.77;;;19.80;99.90;;;;;;5064413;28;1107581;-57
2023/08/05 07:15:39;;;;;;;2.60;1.20;;;20.20;99.90;;;;;;5092063;27;20090;-57
2023/08/05 07:18:05;;;;;;;2.45;1.65;;;20.20;99.90;;;;;;5083237;28;20074;-57
2023/08/05 07:20:31;;;;;;;5.85;1.70;;;20.40;99.90;;;;;;5076147;27;20196;-57
2023/08/05 07:22:56;;;;;;;5.35;1.73;;;20.90;99.90;;;;;;5074619;28;20053;-57
2023/08/05 07:25:22;;;;;;;2.55;1.42;;;21.00;99.90;;;;;;5055366;28;20064;-58
2023/08/05 07:27:48;;;;;;;1.95;1.30;;;20.60;99.90;;;;;;5086065;28;20425;-58
2023/08/05 07:30:14;;;;;;;1.85;1.23;;;20.60;99.90;;;;;;5076048;28;20044;-57
2023/08/05 07:32:40;;;;;;;3.55;1.67;;;20.40;99.90;;;;;;5094864;28;20056;-58
2023/08/05 07:37:35;;;;;;;4.00;1.40;;;20.00;99.90;;;;;;5072184;28;20227;-57
2023/08/05 07:40:04;;;;;;;2.33;1.38;;;20.00;99.90;;;;;;5102775;28;20051;-57
2023/08/05 07:42:30;;;;;;;2.42;1.65;;;19.90;99.90;;;;;;5089198;28;20064;-57
2023/08/05 07:44:57;;;;;;;3.22;1.67;;;20.00;99.90;;;;;;5079559;27;20136;-57
2023/08/05 07:47:22;;;;;;;5.13;1.63;;;20.10;99.90;;;;;;5090026;28;20052;-58
2023/08/05 07:49:48;;;;;;;4.38;2.05;;;20.40;99.90;;;;;;5083874;27;20093;-58
2023/08/05 07:52:14;;;;;;;4.60;1.70;;;20.30;99.90;;;;;;5098518;27;20509;-65
2023/08/05 07:54:40;;;;;;;5.65;1.90;;;20.40;99.90;;;;;;5090668;27;20117;-65
2023/08/05 07:59:35;;;;;;;3.70;1.27;;;20.80;99.90;;;;;;5085928;27;20064;-58
2023/08/05 08:02:01;;;;;;;4.15;2.03;;;21.50;99.90;;;;;;5080732;27;20074;-57
2023/08/05 08:04:32;;;;;;;3.20;1.42;;;22.20;99.90;;;;;;5076669;28;20104;-57
2023/08/05 08:06:58;;;;;;;3.17;1.65;;;22.10;99.90;;;;;;5074575;28;20059;-57
2023/08/05 08:09:24;;;;;;;4.72;1.60;;;22.00;99.90;;;;;;5072557;28;20044;-57
2023/08/05 08:11:49;;;;;;;1.42;1.33;;;21.80;99.90;;;;;;5093075;27;20067;-57
2023/08/05 08:14:15;;;;;;;5.40;1.88;;;21.70;99.90;;;;;;5060248;28;20049;-57
2023/08/05 08:16:41;;;;;;;2.35;1.45;;;21.50;99.90;;;;;;5092041;27;20051;-57
2023/08/05 08:19:10;;;;;;;2.03;1.48;;;21.40;99.90;;;;;;5088230;28;20059;-55
2023/08/05 08:21:36;;;;;;;2.65;1.65;;;21.90;99.90;;;;;;5087455;27;20048;-57
2023/08/05 08:24:01;;;;;;;3.80;1.40;;;22.20;99.90;;;;;;5081809;27;20059;-57
2023/08/05 08:26:27;;;;;;;3.70;1.95;;;22.40;99.90;;;;;;5085568;28;20052;-56
2023/08/05 08:28:53;;;;;;;1.40;1.30;;;22.20;99.90;;;;;;5092526;28;20727;-57
2023/08/05 08:31:19;;;;;;;2.78;1.55;;;22.50;99.90;;;;;;5077131;28;20048;-57
2023/08/05 08:33:44;;;;;;;4.28;2.03;;;22.50;99.90;;;;;;5085087;28;20459;-58
2023/08/05 08:36:10;;;;;;;2.33;1.40;;;22.50;99.90;;;;;;5088956;28;20300;-56
2023/08/05 08:38:36;;;;;;;1.45;1.35;;;22.60;99.90;;;;;;5074041;28;20052;-57
2023/08/05 08:41:03;;;;;;;2.13;1.40;;;22.90;99.90;;;;;;5094778;27;20106;-57
2023/08/05 08:43:30;;;;;;;5.03;3.00;;;22.40;99.90;;;;;;5084132;28;20577;-57
2023/08/05 08:45:58;;;;;;;3.42;1.30;;;22.10;99.90;;;;;;5068884;28;20064;-58
2023/08/05 08:48:24;;;;;;;2.78;1.33;;;22.10;99.90;;;;;;5094982;28;20055;-58
2023/08/05 08:50:52;;;;;;;3.33;1.80;;;21.90;99.90;;;;;;5088672;28;20060;-58
2023/08/05 08:53:20;;;;;;;3.35;1.90;;;22.00;99.90;;;;;;5084585;28;20043;-58
2023/08/05 08:55:47;;;;;;;2.50;1.42;;;22.10;99.90;;;;;;5087652;28;20097;-58
2023/08/05 08:58:13;;;;;;;2.95;1.80;;;22.10;99.90;;;;;;5100119;27;20592;-58
2023/08/05 09:00:39;;;;;;;5.03;2.42;;;22.00;99.90;;;;;;5095650;28;20077;-58
2023/08/05 09:05:42;;;;;;;3.75;1.98;;;22.50;99.90;;;;;;5051081;28;20055;-58
2023/08/05 09:08:11;;;;;;;2.17;1.45;;;22.50;99.90;;;;;;5090592;27;20137;-58
2023/08/05 09:10:37;;;;;;;1.52;1.35;;;23.20;99.90;;;;;;5110228;27;20104;-58
2023/08/05 09:15:39;;;;;;;3.30;1.95;;;23.90;99.90;;;;;;5101738;27;20093;-58
2023/08/05 09:18:09;;;;;;;5.75;1.67;;;24.30;99.90;;;;;;5111042;27;20078;-58
2023/08/05 09:20:38;;;;;;;5.13;1.27;;;24.90;99.90;;;;;;5093407;27;20142;-58
2023/08/05 09:25:32;;;;;;;3.10;1.15;;;24.80;99.90;;;;;;5081250;28;21189;-58
2023/08/05 09:28:01;;;;;;;4.32;1.80;;;24.60;99.90;;;;;;5107782;27;20063;-58
2023/08/05 09:30:27;;;;;;;2.35;1.33;;;24.10;99.90;;;;;;5070529;27;20757;-57
2023/08/05 09:32:56;;;;;;;2.53;1.42;;;24.50;99.90;;;;;;5086777;27;20055;-60
2023/08/05 09:35:24;;;;;;;2.45;1.25;;;24.50;99.90;;;;;;5100923;27;20058;-57
2023/08/05 09:37:51;;;;;;;1.33;0.93;;;24.70;99.90;;;;;;5096807;27;20545;-58
2023/08/05 09:40:19;;;;;;;1.92;1.20;;;25.30;99.90;;;;;;5105006;27;20774;-57
2023/08/05 09:42:50;;;;;;;2.78;1.17;;;25.60;99.90;;;;;;5095133;27;20074;-57
2023/08/05 09:45:18;;;;;;;4.90;1.95;;;25.70;99.90;;;;;;5081739;28;20054;-62
2023/08/05 09:47:49;;;;;;;2.95;1.38;;;25.90;99.90;;;;;;5098658;27;20059;-58
2023/08/05 09:50:17;;;;;;;2.25;1.15;;;25.40;99.90;;;;;;5067202;27;20056;-57
2023/08/05 09:52:43;;;;;;;2.42;1.42;;;26.10;99.90;;;;;;5091131;28;20055;-57
2023/08/05 09:57:36;;;;;;;3.20;1.20;;;26.50;99.90;;;;;;5093083;27;20048;-58
2023/08/05 10:00:08;;;;;;;2.83;1.80;;;26.10;99.90;;;;;;5082198;27;20063;-58
2023/08/05 10:02:35;;;;;;;1.53;1.33;;;26.30;99.90;;;;;;5102825;27;20055;-57
2023/08/05 10:05:02;;;;;;;1.38;1.13;;;26.60;99.90;;;;;;5059874;28;20076;-58
2023/08/05 10:07:28;;;;;;;3.75;1.55;;;26.20;99.90;;;;;;5088278;28;20148;-58
2023/08/05 10:09:55;;;;;;;1.60;1.20;;;26.40;99.90;;;;;;5086703;28;20056;-58
2023/08/05 10:12:24;;;;;;;3.50;1.77;;;26.90;99.90;;;;;;5096299;27;20649;-57
2023/08/05 10:14:53;;;;;;;3.38;1.13;;;26.50;99.90;;;;;;5092692;28;20577;-58
2023/08/05 10:17:20;;;;;;;1.02;0.98;;;27.10;99.90;;;;;;5095759;27;20082;-57
2023/08/05 10:19:50;;;;;;;5.38;2.00;;;26.30;99.90;;;;;;5079924;28;20056;-57
2023/08/05 10:22:21;;;;;;;1.48;1.10;;;25.60;99.90;;;;;;5071350;28;20083;-57
2023/08/05 10:24:54;;;;;;;2.67;0.95;;;25.90;99.90;;;;;;5096001;28;20138;-59
2023/08/05 10:27:52;;;;;;;2.90;1.25;;;25.60;99.90;;;;;;5090135;27;20182;-57
2023/08/05 10:30:17;;;;;;;2.50;1.45;;;25.30;99.90;;;;;;5060770;28;20329;-57
2023/08/05 10:32:49;;;;;;;1.13;1.02;;;25.50;99.90;;;;;;5080390;28;20531;-57
2023/08/05 10:35:40;;;;;;;1.05;0.90;;;25.90;99.90;;;;;;5088457;28;20056;-57
2023/08/05 10:40:39;;;;;;;1.92;1.10;;;25.50;99.90;;;;;;5089259;28;20117;-62
2023/08/05 10:43:12;;;;;;;1.67;1.45;;;25.50;99.90;;;;;;5096240;28;20063;-63
2023/08/05 10:45:42;;;;;;;1.60;1.33;;;25.30;99.90;;;;;;5098059;28;20056;-58
2023/08/05 10:48:13;;;;;;;1.85;1.30;;;26.00;99.90;;;;;;5089227;28;20188;-61
2023/08/05 10:50:41;;;;;;;2.55;1.15;;;25.90;99.90;;;;;;5097615;28;20134;-61
2023/08/05 10:53:12;;;;;;;1.63;1.23;;;26.60;99.90;;;;;;5090291;28;20773;-61
2023/08/05 10:55:49;;;;;;;1.92;0.82;;;26.50;99.90;;;;;;5095870;28;20059;-57
2023/08/05 10:58:20;;;;;;;2.22;1.25;;;26.90;99.90;;;;;;5087891;28;20059;-58
2023/08/05 11:00:58;;;;;;;2.40;1.08;;;26.70;99.90;;;;;;5091481;28;20094;-61
2023/08/05 11:03:45;;;;;;;3.75;1.67;;;25.90;99.90;;;;;;5088626;27;20056;-64
2023/08/05 11:06:12;;;;;;;2.25;1.40;;;25.70;99.90;;;;;;5091812;28;20581;-58
2023/08/05 11:08:40;;;;;;;2.17;0.95;;;26.30;99.90;;;;;;5095577;28;20052;-58
2023/08/05 11:11:09;;;;;;;1.85;1.20;;;26.80;99.90;;;;;;5089917;28;20052;-58
2023/08/05 11:13:37;;;;;;;2.00;1.23;;;26.70;99.90;;;;;;5092771;28;20112;-59
2023/08/05 11:16:10;;;;;;;1.90;1.50;;;26.40;99.90;;;;;;5104388;27;20047;-58
2023/08/05 11:18:37;;;;;;;1.38;1.27;;;26.60;99.90;;;;;;5094640;28;20181;-59
2023/08/05 11:21:05;;;;;;;2.10;1.17;;;27.70;99.90;;;;;;5088346;28;20056;-59
2023/08/05 11:23:32;;;;;;;1.70;1.40;;;28.00;99.90;;;;;;5099523;28;20436;-58
2023/08/05 11:26:00;;;;;;;1.40;1.20;;;27.50;99.90;;;;;;5098315;28;20067;-64
2023/08/05 11:28:26;;;;;;;5.50;2.15;;;27.40;99.90;;;;;;5081628;28;20105;-66
2023/08/05 11:30:53;;;;;;;2.80;1.10;;;27.60;99.90;;;;;;5050273;27;1146215;-62
2023/08/05 11:33:20;;;;;;;3.05;1.50;;;27.90;99.90;;;;;;5049897;28;20079;-62
2023/08/05 11:35:47;;;;;;;1.48;1.38;;;27.00;99.90;;;;;;5101888;27;20410;-58
2023/08/05 11:38:19;;;;;;;4.05;1.80;;;26.60;99.90;;;;;;5087640;28;20082;-59
2023/08/05 11:40:47;;;;;;;1.20;1.10;;;26.70;99.90;;;;;;5085374;28;20513;-61
2023/08/05 11:43:19;;;;;;;1.88;1.55;;;26.70;99.90;;;;;;5077554;28;20048;-58
2023/08/05 11:45:46;;;;;;;2.72;1.20;;;26.80;99.90;;;;;;5097671;28;20052;-63
2023/08/05 11:48:26;;;;;;;3.30;1.02;;;26.90;99.90;;;;;;5079010;28;20063;-60
2023/08/05 11:50:59;;;;;;;1.63;1.05;;;26.80;99.90;;;;;;5101756;28;20520;-65
2023/08/05 11:53:26;;;;;;;1.00;0.98;;;26.80;99.90;;;;;;5094860;27;20064;-63
2023/08/05 11:55:52;;;;;;;1.30;1.20;;;27.20;99.90;;;;;;5094129;27;20509;-67
2023/08/05 11:58:19;;;;;;;2.25;1.20;;;27.30;99.90;;;;;;5073578;28;20170;-60
2023/08/05 12:00:58;;;;;;;2.72;1.30;;;27.50;99.90;;;;;;5066509;28;20569;-62
2023/08/05 12:03:33;;;;;;;1.80;1.23;;;27.40;99.90;;;;;;5073646;28;20052;-64
2023/08/05 12:06:03;;;;;;;1.90;1.17;;;27.40;99.90;;;;;;5073608;27;20052;-58
2023/08/05 12:08:42;;;;;;;1.58;1.33;;;27.40;99.90;;;;;;5088566;28;21191;-58
2023/08/05 12:11:14;;;;;;;1.38;1.10;;;26.90;99.90;;;;;;5098410;27;21120;-58
2023/08/05 12:13:42;;;;;;;3.38;1.80;;;27.50;99.90;;;;;;5093263;27;20083;-58
2023/08/05 12:16:17;;;;;;;1.60;1.50;;;27.30;99.90;;;;;;5088117;28;20052;-58
2023/08/05 12:18:46;;;;;;;6.97;2.25;;;27.40;99.90;;;;;;5091726;27;20138;-60
2023/08/05 12:21:13;;;;;;;2.42;1.77;;;27.20;99.90;;;;;;5104931;27;20046;-60
2023/08/05 12:23:41;;;;;;;2.67;1.70;;;27.30;99.90;;;;;;5057092;28;20055;-59
2023/08/05 12:26:12;;;;;;;2.40;1.70;;;26.60;99.90;;;;;;5079866;28;21041;-60
2023/08/05 12:28:38;;;;;;;3.25;1.67;;;27.00;99.90;;;;;;5086992;28;20056;-59
2023/08/05 12:31:04;;;;;;;2.35;1.45;;;27.00;99.90;;;;;;5080601;28;20056;-58
2023/08/05 12:33:30;;;;;;;1.95;1.60;;;26.50;99.90;;;;;;5065800;28;20201;-60
2023/08/05 12:35:56;;;;;;;3.15;2.00;;;26.20;99.90;;;;;;5072006;28;20089;-58
2023/08/05 12:38:22;;;;;;;2.53;1.70;;;26.00;99.90;;;;;;5076617;28;20053;-60
2023/08/05 12:40:47;;;;;;;3.58;2.85;;;26.00;99.90;;;;;;5106145;27;20097;-58
2023/08/05 12:43:13;;;;;;;3.35;2.75;;;25.40;99.90;;;;;;5092232;27;20059;-58
2023/08/05 12:45:39;;;;;;;4.95;3.03;;;25.20;99.90;;;;;;5079520;28;20145;-58
2023/08/05 12:48:05;;;;;;;3.25;2.95;;;24.90;99.90;;;;;;5095304;27;20151;-58
2023/08/05 12:50:30;;;;;;;3.10;2.80;;;25.10;99.90;;;;;;5089441;27;20142;-59
2023/08/05 12:52:56;;;;;;;5.43;3.35;;;25.00;99.90;;;;;;5069522;27;20055;-58
2023/08/05 12:55:22;;;;;;;4.43;4.03;;;24.80;99.90;;;;;;5087254;27;20085;-58
2023/08/05 12:57:49;;;;;;;4.63;4.20;;;24.50;99.90;;;;;;5075251;28;20064;-58
2023/08/05 13:00:14;;;;;;;7.10;5.10;;;24.60;99.90;;;;;;5090287;28;20056;-58
2023/08/05 13:02:40;;;;;;;5.22;4.35;;;24.10;99.90;;;;;;5074551;28;20723;-58
2023/08/05 13:07:31;;;;;;;6.78;5.30;;;23.80;99.90;;;;;;5099848;27;20113;-58
2023/08/05 13:09:57;;;;;;;5.57;4.75;;;24.00;99.90;;;;;;5078033;27;20065;-57
2023/08/05 13:12:32;;;;;;;6.95;4.85;;;23.50;99.90;;;;;;5076174;27;20490;-58